createdAt,value
2022-09-25T00:00:24.119Z,17.10
2022-09-25T00:03:13.700Z,17.10
2022-09-25T00:06:03.521Z,17.00
2022-09-25T00:08:52.929Z,17.00
2022-09-25T00:11:42.067Z,17.00
2022-09-25T00:14:31.556Z,17.00
2022-09-25T00:17:21.983Z,17.00
2022-09-25T00:20:11.375Z,17.00
2022-09-25T00:23:02.663Z,17.10
2022-09-25T00:25:56.490Z,17.00
2022-09-25T00:28:45.618Z,17.10
2022-09-25T00:31:35.174Z,17.10
2022-09-25T00:34:25.767Z,17.10
2022-09-25T00:37:15.013Z,17.00
2022-09-25T00:40:04.135Z,17.00
2022-09-25T00:42:53.197Z,17.00
2022-09-25T00:45:42.344Z,17.00
2022-09-25T00:48:32.409Z,16.90
2022-09-25T00:51:29.854Z,16.90
2022-09-25T00:54:27.353Z,16.80
2022-09-25T00:57:19.704Z,16.70
2022-09-25T01:00:13.220Z,16.60
2022-09-25T01:03:03.435Z,16.60
2022-09-25T01:05:52.998Z,16.70
2022-09-25T01:08:44.362Z,16.60
2022-09-25T01:11:33.529Z,16.70
2022-09-25T01:14:22.809Z,16.70
2022-09-25T01:17:19.163Z,16.70
2022-09-25T01:20:22.485Z,16.80
2022-09-25T01:23:22.259Z,16.80
2022-09-25T01:26:31.599Z,16.80
2022-09-25T01:29:28.520Z,16.90
2022-09-25T01:32:22.318Z,16.90
2022-09-25T01:35:19.637Z,16.90
2022-09-25T01:38:16.515Z,16.90
2022-09-25T01:41:13.189Z,16.90
2022-09-25T01:44:07.944Z,16.90
2022-09-25T01:47:09.414Z,16.90
2022-09-25T01:50:01.944Z,16.90
2022-09-25T01:52:54.534Z,16.90
2022-09-25T01:55:47.780Z,16.80
2022-09-25T01:58:42.365Z,16.80
2022-09-25T02:01:35.682Z,16.80
2022-09-25T02:04:30.474Z,16.80
2022-09-25T02:07:25.405Z,16.80
2022-09-25T02:10:19.219Z,16.80
2022-09-25T02:13:13.313Z,16.80
2022-09-25T02:16:06.446Z,16.70
2022-09-25T02:19:12.927Z,16.70
2022-09-25T02:22:09.617Z,16.80
2022-09-25T02:25:04.714Z,16.70
2022-09-25T02:27:53.819Z,16.70
2022-09-25T02:30:43.461Z,16.70
2022-09-25T02:33:32.764Z,16.70
2022-09-25T02:36:24.118Z,16.70
2022-09-25T02:39:17.430Z,16.60
2022-09-25T02:42:21.484Z,16.60
2022-09-25T02:45:25.430Z,16.70
2022-09-25T02:48:22.022Z,16.70
2022-09-25T02:51:17.904Z,16.70
2022-09-25T02:54:13.090Z,16.70
2022-09-25T02:57:09.434Z,16.70
2022-09-25T03:00:02.894Z,16.60
2022-09-25T03:02:56.577Z,16.50
2022-09-25T03:05:46.285Z,16.60
2022-09-25T03:08:42.017Z,16.60
2022-09-25T03:11:31.352Z,16.60
2022-09-25T03:14:22.005Z,16.70
2022-09-25T03:17:12.577Z,16.70
2022-09-25T03:20:02.634Z,16.70
2022-09-25T03:22:51.778Z,16.60
2022-09-25T03:25:42.772Z,16.60
2022-09-25T03:28:35.354Z,16.60
2022-09-25T03:31:26.131Z,16.60
2022-09-25T03:34:17.726Z,16.60
2022-09-25T03:37:06.751Z,16.60
2022-09-25T03:39:55.766Z,16.60
2022-09-25T03:42:44.532Z,16.60
2022-09-25T03:45:33.949Z,16.60
2022-09-25T03:48:24.465Z,16.60
2022-09-25T03:51:14.158Z,16.60
2022-09-25T03:54:04.423Z,16.60
2022-09-25T03:56:53.715Z,16.60
2022-09-25T03:59:42.556Z,16.60
2022-09-25T04:02:31.637Z,16.60
2022-09-25T04:05:21.891Z,16.60
2022-09-25T04:08:11.429Z,16.60
2022-09-25T04:11:00.958Z,16.50
2022-09-25T04:13:50.092Z,16.50
2022-09-25T04:16:39.765Z,16.50
2022-09-25T04:19:28.770Z,16.60
2022-09-25T04:22:19.456Z,16.60
2022-09-25T04:25:09.913Z,16.50
2022-09-25T04:27:59.205Z,16.50
2022-09-25T04:30:48.731Z,16.60
2022-09-25T04:33:48.799Z,16.60
2022-09-25T04:36:37.857Z,16.60
2022-09-25T04:39:28.731Z,16.60
2022-09-25T04:42:17.492Z,16.60
2022-09-25T04:45:07.331Z,16.60
2022-09-25T04:47:56.244Z,16.60
2022-09-25T04:50:51.714Z,16.60
2022-09-25T04:53:40.893Z,16.60
2022-09-25T04:56:31.362Z,16.60
2022-09-25T04:59:20.460Z,16.60
2022-09-25T05:02:09.411Z,16.70
2022-09-25T05:04:58.658Z,16.70
2022-09-25T05:07:54.177Z,16.70
2022-09-25T05:10:46.172Z,16.70
2022-09-25T05:13:36.526Z,16.70
2022-09-25T05:16:25.933Z,16.60
2022-09-25T05:19:15.201Z,16.60
2022-09-25T05:22:04.210Z,16.60
2022-09-25T05:24:58.821Z,16.60
2022-09-25T05:27:48.978Z,16.60
2022-09-25T05:30:40.035Z,16.60
2022-09-25T05:33:29.151Z,16.60
2022-09-25T05:36:18.947Z,16.60
2022-09-25T05:39:10.961Z,16.60
2022-09-25T05:42:04.059Z,16.60
2022-09-25T05:44:53.004Z,16.60
2022-09-25T05:47:43.590Z,16.60
2022-09-25T05:50:33.683Z,16.60
2022-09-25T05:53:23.522Z,16.60
2022-09-25T05:56:13.662Z,16.60
2022-09-25T05:59:02.571Z,16.60
2022-09-25T06:01:52.547Z,16.60
2022-09-25T06:04:43.145Z,16.70
2022-09-25T06:07:32.469Z,16.70
2022-09-25T06:10:21.982Z,16.70
2022-09-25T06:13:11.036Z,16.60
2022-09-25T06:16:00.565Z,16.70
2022-09-25T06:18:51.132Z,16.70
2022-09-25T06:21:42.502Z,16.70
2022-09-25T06:24:31.236Z,16.80
2022-09-25T06:27:20.377Z,16.80
2022-09-25T06:30:09.939Z,16.80
2022-09-25T06:33:00.162Z,16.80
2022-09-25T06:35:50.282Z,16.80
2022-09-25T06:38:40.503Z,16.80
2022-09-25T06:41:29.838Z,16.80
2022-09-25T06:44:19.045Z,16.80
2022-09-25T06:47:08.211Z,16.80
2022-09-25T06:49:58.227Z,16.80
2022-09-25T06:52:46.670Z,16.70
2022-09-25T06:55:37.757Z,16.70
2022-09-25T06:58:27.424Z,16.70
2022-09-25T07:01:16.772Z,16.70
2022-09-25T07:04:05.218Z,16.70
2022-09-25T07:06:58.795Z,16.70
2022-09-25T07:09:48.573Z,16.60
2022-09-25T07:12:41.682Z,16.60
2022-09-25T07:15:31.328Z,16.60
2022-09-25T07:18:20.265Z,16.60
2022-09-25T07:21:10.721Z,16.60
2022-09-25T07:24:00.092Z,16.60
2022-09-25T07:26:49.123Z,16.60
2022-09-25T07:29:40.699Z,16.60
2022-09-25T07:32:29.880Z,16.60
2022-09-25T07:35:19.026Z,16.60
2022-09-25T07:38:07.891Z,16.60
2022-09-25T07:40:57.720Z,16.50
2022-09-25T07:43:47.228Z,16.60
2022-09-25T07:46:43.040Z,16.60
2022-09-25T07:49:32.454Z,16.60
2022-09-25T07:52:22.140Z,16.60
2022-09-25T07:55:11.430Z,16.60
2022-09-25T07:58:00.701Z,16.50
2022-09-25T08:00:49.432Z,16.50
2022-09-25T08:03:40.529Z,16.40
2022-09-25T08:06:30.110Z,16.20
2022-09-25T08:09:19.318Z,16.30
2022-09-25T08:12:13.209Z,16.40
2022-09-25T08:15:01.999Z,16.40
2022-09-25T08:17:51.541Z,16.40
2022-09-25T08:20:42.379Z,16.40
2022-09-25T08:23:31.475Z,16.30
2022-09-25T08:26:22.246Z,16.30
2022-09-25T08:29:11.561Z,16.30
2022-09-25T08:32:01.042Z,16.40
2022-09-25T08:34:50.460Z,16.50
2022-09-25T08:37:43.350Z,16.60
2022-09-25T08:40:34.358Z,16.70
2022-09-25T08:43:26.464Z,16.80
2022-09-25T08:46:39.790Z,16.80
2022-09-25T08:49:34.596Z,16.80
2022-09-25T08:52:23.866Z,17.00
2022-09-25T08:55:18.661Z,17.00
2022-09-25T08:58:10.863Z,17.10
2022-09-25T09:01:02.081Z,17.10
2022-09-25T09:03:57.849Z,17.20
2022-09-25T09:07:08.099Z,17.10
2022-09-25T09:10:03.909Z,17.10
2022-09-25T09:12:59.257Z,17.10
2022-09-25T09:15:51.389Z,17.00
2022-09-25T09:18:42.500Z,16.90
2022-09-25T09:21:36.335Z,16.80
2022-09-25T09:24:31.655Z,16.80
2022-09-25T09:27:30.478Z,16.90
2022-09-25T09:30:24.237Z,17.00
2022-09-25T09:33:27.387Z,17.00
2022-09-25T09:36:24.266Z,17.10
2022-09-25T09:39:29.342Z,17.20
2022-09-25T09:42:26.099Z,17.40
2022-09-25T09:45:22.537Z,17.50
2022-09-25T09:48:17.555Z,17.50
2022-09-25T09:51:12.414Z,17.40
2022-09-25T09:54:05.488Z,17.50
2022-09-25T09:56:56.334Z,17.50
2022-09-25T09:59:50.722Z,17.50
2022-09-25T10:02:45.135Z,17.50
2022-09-25T10:05:39.507Z,17.60
2022-09-25T10:08:28.844Z,17.80
2022-09-25T10:11:19.767Z,17.70
2022-09-25T10:14:16.723Z,17.70
2022-09-25T10:17:06.603Z,17.70
2022-09-25T10:19:59.878Z,17.70
2022-09-25T10:22:50.769Z,17.70
2022-09-25T10:25:41.393Z,17.70
2022-09-25T10:28:32.723Z,17.60
2022-09-25T10:31:22.652Z,17.50
2022-09-25T10:34:22.594Z,17.50
2022-09-25T10:37:22.390Z,17.60
2022-09-25T10:40:27.723Z,17.50
2022-09-25T10:43:20.743Z,17.50
2022-09-25T10:46:14.556Z,17.60
2022-09-25T10:49:33.016Z,17.70
2022-09-25T10:52:24.282Z,17.70
2022-09-25T10:55:22.338Z,17.80
2022-09-25T10:58:21.448Z,17.90
2022-09-25T11:01:13.716Z,17.90
2022-09-25T11:04:06.145Z,17.90
2022-09-25T11:06:58.190Z,17.90
2022-09-25T11:09:49.201Z,18.00
2022-09-25T11:12:39.016Z,18.00
2022-09-25T11:15:29.890Z,18.00
2022-09-25T11:18:38.130Z,18.00
2022-09-25T11:21:34.838Z,17.90
2022-09-25T11:24:29.782Z,18.00
2022-09-25T11:27:25.986Z,18.00
2022-09-25T11:30:19.060Z,18.00
2022-09-25T11:33:18.345Z,18.10
2022-09-25T11:36:11.342Z,18.00
2022-09-25T11:39:22.115Z,18.00
2022-09-25T11:42:19.231Z,18.00
2022-09-25T11:45:18.244Z,18.00
2022-09-25T11:48:14.587Z,18.00
2022-09-25T11:51:13.090Z,17.90
2022-09-25T11:54:32.745Z,17.90
2022-09-25T11:57:34.238Z,17.90
2022-09-25T12:00:31.745Z,18.00
2022-09-25T12:03:35.754Z,18.00
2022-09-25T12:06:49.367Z,18.00
2022-09-25T12:09:51.307Z,18.10
2022-09-25T12:12:47.965Z,17.90
2022-09-25T12:15:55.585Z,18.00
2022-09-25T12:19:12.643Z,17.80
2022-09-25T12:22:09.320Z,17.80
2022-09-25T12:25:05.043Z,17.90
2022-09-25T12:28:01.500Z,18.00
2022-09-25T12:31:05.568Z,18.10
2022-09-25T12:34:07.827Z,18.20
2022-09-25T12:37:05.513Z,18.20
2022-09-25T12:39:58.841Z,18.30
2022-09-25T12:42:55.612Z,18.30
2022-09-25T12:45:50.236Z,18.30
2022-09-25T12:48:46.446Z,18.40
2022-09-25T14:03:46.764Z,20.40
2022-09-25T14:06:39.242Z,20.20
2022-09-25T14:18:33.191Z,19.60
2022-09-25T14:21:23.926Z,19.50
2022-09-25T14:24:20.459Z,19.40
2022-09-25T14:27:23.800Z,19.30
2022-09-25T14:33:24.249Z,19.20
2022-09-25T14:36:23.378Z,19.10
2022-09-25T14:39:34.512Z,19.10
2022-09-25T14:42:54.391Z,18.80
2022-09-25T14:46:07.576Z,18.90
2022-09-25T14:49:03.397Z,18.80
2022-09-25T14:51:54.843Z,18.80
2022-09-25T14:54:47.924Z,18.80
2022-09-25T14:57:39.896Z,18.80
2022-09-25T15:00:29.270Z,18.90
2022-09-25T15:03:20.947Z,18.70
2022-09-25T15:06:13.950Z,18.80
2022-09-25T15:09:28.460Z,18.90
2022-09-25T15:12:25.049Z,19.00
2022-09-25T15:15:16.998Z,19.00
2022-09-25T15:18:08.618Z,19.10
2022-09-25T15:20:57.499Z,19.20
2022-09-25T15:23:47.160Z,19.20
2022-09-25T15:26:42.953Z,19.30
2022-09-25T15:29:37.309Z,19.30
2022-09-25T15:32:28.757Z,19.30
2022-09-25T15:35:20.276Z,19.20
2022-09-25T15:38:13.685Z,19.20
2022-09-25T15:41:03.530Z,19.20
2022-09-25T15:43:53.780Z,19.30
2022-09-25T15:46:46.660Z,19.40
2022-09-25T15:49:40.543Z,19.40
2022-09-25T15:52:34.453Z,19.40
2022-09-25T15:55:24.457Z,19.40
2022-09-25T15:58:16.914Z,19.30
2022-09-25T16:01:23.532Z,19.20
2022-09-25T16:04:38.845Z,19.10
2022-09-25T16:07:30.827Z,19.00
2022-09-25T16:10:37.626Z,18.90
2022-09-25T16:13:27.282Z,18.90
2022-09-25T16:16:29.589Z,18.90
2022-09-25T16:19:33.724Z,18.90
2022-09-25T16:22:25.205Z,18.90
2022-09-25T16:25:21.424Z,18.90
2022-09-25T16:28:16.206Z,18.90
2022-09-25T16:31:08.175Z,18.90
2022-09-25T16:34:00.814Z,18.90
2022-09-25T16:36:51.844Z,18.90
2022-09-25T16:39:41.599Z,18.90
2022-09-25T16:42:40.379Z,18.90
2022-09-25T16:45:33.605Z,18.90
2022-09-25T16:48:37.215Z,18.70
2022-09-25T16:51:28.914Z,18.60
2022-09-25T16:54:21.759Z,18.70
2022-09-25T16:57:17.507Z,18.70
2022-09-25T17:00:08.117Z,18.70
2022-09-25T17:02:57.472Z,18.70
2022-09-25T17:05:46.462Z,18.60
2022-09-25T17:08:35.812Z,18.60
2022-09-25T17:11:26.535Z,18.60
2022-09-25T17:14:24.323Z,18.60
2022-09-25T17:17:16.720Z,18.60
2022-09-25T17:20:06.542Z,18.50
2022-09-25T17:22:56.632Z,18.50
2022-09-25T17:25:49.091Z,18.50
2022-09-25T17:28:39.522Z,18.50
2022-09-25T17:31:29.126Z,18.40
2022-09-25T17:34:19.457Z,18.30
2022-09-25T17:37:08.499Z,18.20
2022-09-25T17:39:57.657Z,18.30
2022-09-25T17:42:46.910Z,18.20
2022-09-25T17:45:43.444Z,18.20
2022-09-25T17:48:35.158Z,18.20
2022-09-25T17:51:27.985Z,18.20
2022-09-25T17:54:22.498Z,18.20
2022-09-25T17:57:12.628Z,18.10
2022-09-25T18:00:01.763Z,18.10
2022-09-25T18:02:54.551Z,18.10
2022-09-25T18:05:44.777Z,18.00
2022-09-25T18:08:33.951Z,18.10
2022-09-25T18:11:23.422Z,18.10
2022-09-25T18:14:13.732Z,18.00
2022-09-25T18:17:02.479Z,18.00
2022-09-25T18:20:10.842Z,17.90
2022-09-25T18:22:59.727Z,17.90
2022-09-25T18:25:49.502Z,17.90
2022-09-25T18:28:41.510Z,17.90
2022-09-25T18:31:32.639Z,17.90
2022-09-25T18:34:28.564Z,17.90
2022-09-25T18:37:21.467Z,17.90
2022-09-25T18:40:15.083Z,17.80
2022-09-25T18:43:04.422Z,17.80
2022-09-25T18:45:53.491Z,17.70
2022-09-25T18:48:50.874Z,17.70
2022-09-25T18:51:41.253Z,17.70
2022-09-25T18:54:32.599Z,17.70
2022-09-25T18:57:22.780Z,17.80
2022-09-25T19:00:19.029Z,17.80
2022-09-25T19:03:17.778Z,17.60
2022-09-25T19:06:07.355Z,17.60
2022-09-25T19:08:58.412Z,17.60
2022-09-25T19:11:56.069Z,17.50
2022-09-25T19:14:48.790Z,17.40
2022-09-25T19:17:40.360Z,17.40
2022-09-25T19:20:29.216Z,17.50
2022-09-25T19:23:21.027Z,17.50
2022-09-25T19:26:12.469Z,17.50
2022-09-25T19:29:03.680Z,17.50
2022-09-25T19:31:58.817Z,17.50
2022-09-25T19:34:49.311Z,17.50
2022-09-25T19:37:42.339Z,17.50
2022-09-25T19:40:41.981Z,17.50
2022-09-25T19:43:35.628Z,17.50
2022-09-25T19:46:32.294Z,17.40
2022-09-25T19:49:23.421Z,17.40
2022-09-25T19:52:20.560Z,17.30
2022-09-25T19:55:10.885Z,17.30
2022-09-25T19:58:00.697Z,17.30
2022-09-25T20:00:53.773Z,17.30
2022-09-25T20:03:47.935Z,17.30
2022-09-25T20:06:44.329Z,17.30
2022-09-25T20:09:40.178Z,17.30
2022-09-25T20:12:29.347Z,17.30
2022-09-25T20:15:19.757Z,17.30
2022-09-25T20:18:11.516Z,17.30
2022-09-25T20:21:06.680Z,17.20
2022-09-25T20:23:59.565Z,17.20
2022-09-25T20:26:52.022Z,17.10
2022-09-25T20:29:44.772Z,17.10
2022-09-25T20:32:35.326Z,17.10
2022-09-25T20:35:27.824Z,17.10
2022-09-25T20:38:18.508Z,17.10
2022-09-25T20:41:11.469Z,17.10
2022-09-25T20:44:07.881Z,17.10
2022-09-25T20:46:59.708Z,17.10
2022-09-25T20:49:49.505Z,17.10
2022-09-25T20:52:40.930Z,17.10
2022-09-25T20:55:39.065Z,17.10
2022-09-25T20:58:30.674Z,17.10
2022-09-25T21:01:24.420Z,17.10
2022-09-25T21:04:21.121Z,17.10
2022-09-25T21:07:16.940Z,16.90
2022-09-25T21:10:09.521Z,16.90
2022-09-25T21:13:07.100Z,17.00
2022-09-25T21:15:55.703Z,17.00
2022-09-25T21:18:45.788Z,16.80
2022-09-25T21:21:37.532Z,16.80
2022-09-25T21:24:28.433Z,16.90
2022-09-25T21:27:19.364Z,16.90
2022-09-25T21:30:14.766Z,17.00
2022-09-25T21:33:07.616Z,17.00
2022-09-25T21:35:57.306Z,17.00
2022-09-25T21:38:46.460Z,16.90
2022-09-25T21:41:38.068Z,16.90
2022-09-25T21:44:27.959Z,16.90
2022-09-25T21:47:20.985Z,17.00
2022-09-25T21:50:10.791Z,16.90
2022-09-25T21:52:59.996Z,17.00
2022-09-25T21:55:48.974Z,17.10
2022-09-25T21:58:38.750Z,17.10
2022-09-25T22:01:29.836Z,17.10
2022-09-25T22:04:21.053Z,17.10
2022-09-25T22:07:10.407Z,17.10
2022-09-25T22:09:59.878Z,17.10
2022-09-25T22:12:48.877Z,17.00
2022-09-25T22:15:38.118Z,16.80
2022-09-25T22:18:27.352Z,16.70
2022-09-25T22:21:20.267Z,16.60
2022-09-25T22:24:09.679Z,16.40
2022-09-25T22:26:59.064Z,16.50
2022-09-25T22:29:48.953Z,16.60
2022-09-25T22:32:40.297Z,16.60
2022-09-25T22:35:29.680Z,16.60
2022-09-25T22:38:20.028Z,16.60
2022-09-25T22:41:11.362Z,16.70
2022-09-25T22:44:01.168Z,16.60
2022-09-25T22:46:50.607Z,16.50
2022-09-25T22:49:39.773Z,16.40
2022-09-25T22:52:29.103Z,16.30
2022-09-25T22:55:19.527Z,16.40
2022-09-25T22:58:09.300Z,16.50
